Time;durP1;ratioP1;P1;durP2;ratioP2;P2;SDS_P1;SDS_P2;PMS_P1;PMS_P2;Temp;Humidity;BMP_temperature;BMP_pressure;BME280_temperature;BME280_humidity;BME280_pressure;Samples;Min_cycle;Max_cycle;Signal;HPM_P1;HPM_P2
2023/06/25 00:01:57;;;;;;;89.27;2.50;;;22.90;28.80;;;;;;4994890;28;20466;-72
2023/06/25 00:04:22;;;;;;;89.43;2.60;;;22.80;28.90;;;;;;4994811;28;20639;-73
2023/06/25 00:06:48;;;;;;;88.80;2.20;;;22.90;29.20;;;;;;4981981;28;20288;-72
2023/06/25 00:09:14;;;;;;;88.87;2.17;;;22.80;29.90;;;;;;4986227;28;20235;-73
2023/06/25 00:11:39;;;;;;;89.10;2.40;;;22.70;29.70;;;;;;4994375;28;20184;-72
2023/06/25 00:14:05;;;;;;;89.90;2.67;;;22.70;29.80;;;;;;4994475;28;20180;-72
2023/06/25 00:16:33;;;;;;;89.00;2.27;;;22.60;30.50;;;;;;4987021;28;20624;-72
2023/06/25 00:18:59;;;;;;;88.80;2.00;;;22.60;30.00;;;;;;4984311;28;20976;-73
2023/06/25 00:21:25;;;;;;;89.77;2.70;;;22.50;29.90;;;;;;4987945;28;20422;-72
2023/06/25 00:23:50;;;;;;;89.50;2.53;;;22.70;29.40;;;;;;4994209;28;20486;-72
2023/06/25 00:26:16;;;;;;;90.70;2.73;;;22.60;29.80;;;;;;4993678;28;20231;-73
2023/06/25 00:28:42;;;;;;;88.93;2.23;;;22.50;29.80;;;;;;4987192;28;20188;-72
2023/06/25 00:31:07;;;;;;;90.40;2.60;;;22.50;29.20;;;;;;4986145;28;20187;-72
2023/06/25 00:33:33;;;;;;;89.50;2.43;;;22.60;28.70;;;;;;4994215;28;20178;-72
2023/06/25 00:35:58;;;;;;;88.87;2.00;;;22.50;29.60;;;;;;4993969;28;20188;-73
2023/06/25 00:38:24;;;;;;;89.77;2.43;;;22.50;29.60;;;;;;4985617;28;20220;-73
2023/06/25 00:40:50;;;;;;;89.17;2.20;;;22.40;29.20;;;;;;4982275;28;20226;-72
2023/06/25 00:43:17;;;;;;;89.57;2.40;;;22.40;29.00;;;;;;4981750;28;20450;-73
2023/06/25 00:45:43;;;;;;;90.27;2.97;;;22.40;29.10;;;;;;4987927;28;20465;-73
2023/06/25 00:48:09;;;;;;;90.00;2.60;;;22.50;29.20;;;;;;4989497;28;20934;-72
2023/06/25 00:50:35;;;;;;;89.37;2.33;;;22.60;28.40;;;;;;4985672;28;20463;-72
2023/06/25 00:53:02;;;;;;;89.30;2.30;;;22.50;29.60;;;;;;4983072;28;20441;-72
2023/06/25 00:55:28;;;;;;;89.63;2.43;;;22.20;30.30;;;;;;4987661;28;20303;-73
2023/06/25 00:57:55;;;;;;;89.70;2.60;;;22.00;31.00;;;;;;4993657;28;20419;-72
2023/06/25 01:00:24;;;;;;;89.50;2.13;;;21.90;31.10;;;;;;4993567;28;20462;-72
2023/06/25 01:03:03;;;;;;;89.33;2.30;;;21.80;30.50;;;;;;4980742;28;20453;-72
2023/06/25 01:05:39;;;;;;;89.47;2.33;;;22.00;31.70;;;;;;4987096;28;20449;-73
2023/06/25 01:08:08;;;;;;;90.80;2.87;;;22.00;31.60;;;;;;4993493;28;20934;-72
2023/06/25 01:10:35;;;;;;;89.77;2.40;;;22.00;32.10;;;;;;4987397;28;21013;-72
2023/06/25 01:13:01;;;;;;;90.10;2.70;;;21.90;32.50;;;;;;4986074;28;20499;-72
2023/06/25 01:15:27;;;;;;;90.17;2.60;;;21.90;32.70;;;;;;4986829;28;20810;-72
2023/06/25 01:17:53;;;;;;;90.93;2.57;;;21.90;31.80;;;;;;4991943;28;20429;-72
2023/06/25 01:20:21;;;;;;;90.47;2.87;;;21.90;32.60;;;;;;4976935;28;20257;-72
2023/06/25 01:22:47;;;;;;;90.27;2.40;;;21.90;33.10;;;;;;4989649;28;20418;-72
2023/06/25 01:25:13;;;;;;;90.30;2.70;;;21.80;33.70;;;;;;4993065;28;20416;-72
2023/06/25 01:27:38;;;;;;;91.27;2.80;;;21.80;33.90;;;;;;4982313;28;20860;-72
2023/06/25 01:30:09;;;;;;;91.30;3.10;;;21.40;33.70;;;;;;4981664;28;20222;-73
2023/06/25 01:32:35;;;;;;;90.80;2.40;;;21.30;34.30;;;;;;4987737;28;20178;-72
2023/06/25 01:35:01;;;;;;;91.00;2.67;;;21.10;35.00;;;;;;4990140;28;20443;-72
2023/06/25 01:37:28;;;;;;;90.57;2.93;;;21.20;34.30;;;;;;4980143;28;20687;-72
2023/06/25 01:39:55;;;;;;;90.20;2.27;;;21.10;34.40;;;;;;4990346;28;20249;-72
2023/06/25 01:42:21;;;;;;;91.20;2.80;;;21.30;35.20;;;;;;4992197;28;20920;-72
2023/06/25 01:44:47;;;;;;;93.77;3.27;;;21.30;34.50;;;;;;4992221;28;20422;-72
2023/06/25 01:47:13;;;;;;;91.13;2.93;;;21.30;35.00;;;;;;4977397;28;20256;-72
2023/06/25 01:49:39;;;;;;;92.10;2.83;;;21.40;34.90;;;;;;4984154;28;20936;-72
2023/06/25 01:52:05;;;;;;;92.10;3.00;;;21.40;34.40;;;;;;4992845;28;20469;-72
2023/06/25 01:54:30;;;;;;;92.27;2.93;;;21.30;35.20;;;;;;4992315;28;20178;-73
2023/06/25 01:56:57;;;;;;;91.17;2.57;;;21.30;35.50;;;;;;4984584;28;20435;-72
2023/06/25 01:59:22;;;;;;;91.73;2.43;;;21.20;35.20;;;;;;4979168;28;20226;-72
2023/06/25 02:01:48;;;;;;;91.50;2.77;;;21.10;35.80;;;;;;4981217;28;20418;-72
2023/06/25 02:04:13;;;;;;;91.57;2.70;;;21.10;35.90;;;;;;4992742;28;20269;-72
2023/06/25 02:06:39;;;;;;;91.40;2.60;;;21.00;35.40;;;;;;4987049;28;20214;-72
2023/06/25 02:09:04;;;;;;;91.40;2.60;;;21.00;36.60;;;;;;4987440;28;20234;-72
2023/06/25 02:11:30;;;;;;;92.60;3.30;;;21.00;36.20;;;;;;4984096;28;20178;-72
2023/06/25 02:13:56;;;;;;;91.50;2.50;;;21.10;37.10;;;;;;4992435;28;20173;-72
2023/06/25 02:16:21;;;;;;;92.03;2.67;;;21.10;37.00;;;;;;4992502;28;20190;-72
2023/06/25 02:18:47;;;;;;;91.47;2.30;;;20.90;35.70;;;;;;4979707;28;20190;-72
2023/06/25 02:21:13;;;;;;;91.70;2.23;;;20.90;36.30;;;;;;4973217;28;20634;-73
2023/06/25 02:23:39;;;;;;;92.07;2.40;;;21.00;36.50;;;;;;4971786;28;20471;-73
2023/06/25 02:26:04;;;;;;;92.00;2.40;;;20.90;37.10;;;;;;4979953;28;20330;-72
2023/06/25 02:28:30;;;;;;;94.63;3.17;;;20.90;35.50;;;;;;4986454;28;20174;-72
2023/06/25 02:30:55;;;;;;;92.77;2.83;;;21.00;35.60;;;;;;4988116;28;20290;-72
2023/06/25 02:33:21;;;;;;;92.27;2.67;;;20.80;36.30;;;;;;4985161;28;20188;-72
2023/06/25 02:35:47;;;;;;;92.27;2.30;;;20.80;36.50;;;;;;4982737;28;20187;-72
2023/06/25 02:38:12;;;;;;;91.90;2.13;;;20.80;37.20;;;;;;4983735;28;20189;-72
2023/06/25 02:40:38;;;;;;;94.07;2.97;;;20.80;37.40;;;;;;4987368;28;20232;-72
2023/06/25 02:43:03;;;;;;;93.00;2.90;;;20.60;37.80;;;;;;4991828;28;20184;-72
2023/06/25 02:45:29;;;;;;;92.60;2.57;;;21.10;37.80;;;;;;4991613;28;20178;-72
2023/06/25 02:47:54;;;;;;;92.57;2.60;;;20.90;37.70;;;;;;4972697;28;20196;-72
2023/06/25 02:50:20;;;;;;;92.67;2.80;;;20.90;37.60;;;;;;4983695;28;20199;-72
2023/06/25 02:52:46;;;;;;;92.97;2.50;;;20.60;37.10;;;;;;4991954;28;20699;-73
2023/06/25 02:55:11;;;;;;;93.10;3.00;;;20.60;36.80;;;;;;4991819;28;20181;-73
2023/06/25 02:57:37;;;;;;;93.73;3.20;;;20.60;37.40;;;;;;4984920;28;20181;-72
2023/06/25 03:00:07;;;;;;;92.87;2.60;;;20.60;36.70;;;;;;4981647;28;20222;-72
2023/06/25 03:02:32;;;;;;;92.80;2.57;;;20.50;36.80;;;;;;4992614;28;20179;-72
2023/06/25 03:04:58;;;;;;;92.97;2.53;;;20.70;36.90;;;;;;4991725;28;20497;-72
2023/06/25 03:07:23;;;;;;;93.20;2.60;;;20.50;36.30;;;;;;4987195;28;20202;-72
2023/06/25 03:09:49;;;;;;;94.30;3.20;;;20.60;36.80;;;;;;4983019;28;20202;-72
2023/06/25 03:12:15;;;;;;;93.87;3.10;;;20.50;36.90;;;;;;4983553;28;20526;-72
2023/06/25 03:14:41;;;;;;;94.57;3.10;;;20.50;37.40;;;;;;4989360;28;20173;-72
2023/06/25 03:17:07;;;;;;;93.97;2.83;;;20.30;37.60;;;;;;4982748;28;20181;-72
2023/06/25 03:19:33;;;;;;;93.67;2.67;;;20.50;38.20;;;;;;4990759;28;20442;-72
2023/06/25 03:21:59;;;;;;;93.67;2.60;;;20.20;39.70;;;;;;4981417;28;20182;-72
2023/06/25 03:24:24;;;;;;;93.70;2.60;;;20.20;38.60;;;;;;4991245;28;20420;-73
2023/06/25 03:26:50;;;;;;;93.50;2.53;;;20.20;38.40;;;;;;4975237;28;20681;-73
2023/06/25 03:29:16;;;;;;;97.00;3.20;;;20.30;38.60;;;;;;4979718;28;20209;-72
2023/06/25 03:31:42;;;;;;;93.17;2.43;;;19.90;39.60;;;;;;4987172;28;20196;-72
2023/06/25 03:34:07;;;;;;;93.07;2.47;;;20.00;39.00;;;;;;4992512;28;20177;-72
2023/06/25 03:36:33;;;;;;;93.60;2.90;;;19.50;39.40;;;;;;4984956;28;20196;-73
2023/06/25 03:38:59;;;;;;;93.67;2.90;;;19.50;40.60;;;;;;4983239;28;20196;-72
2023/06/25 03:41:25;;;;;;;94.43;3.27;;;19.80;40.60;;;;;;4987734;28;20431;-72
2023/06/25 03:43:51;;;;;;;93.40;2.57;;;19.80;40.10;;;;;;4993929;28;20241;-72
2023/06/25 03:46:16;;;;;;;94.20;2.60;;;19.90;38.40;;;;;;4993491;28;20457;-72
2023/06/25 03:48:43;;;;;;;95.30;3.23;;;19.90;38.20;;;;;;4986108;28;20220;-72
2023/06/25 03:51:09;;;;;;;94.17;3.20;;;19.90;38.50;;;;;;4986543;28;20260;-72
2023/06/25 03:53:35;;;;;;;93.27;2.67;;;19.80;38.70;;;;;;4994825;28;20421;-72
2023/06/25 03:56:00;;;;;;;94.40;2.70;;;20.00;38.40;;;;;;4994209;28;20413;-72
2023/06/25 03:58:26;;;;;;;96.07;3.53;;;19.50;39.50;;;;;;4981207;28;20269;-72
2023/06/25 04:00:52;;;;;;;95.17;3.50;;;19.30;41.00;;;;;;4980897;28;20258;-72
2023/06/25 04:03:17;;;;;;;94.00;3.10;;;19.60;41.00;;;;;;4986576;28;20226;-72
2023/06/25 04:05:45;;;;;;;94.07;2.93;;;19.80;40.50;;;;;;4988540;28;20201;-73
2023/06/25 04:08:11;;;;;;;98.57;2.80;;;20.00;39.40;;;;;;4986566;28;20545;-72
2023/06/25 04:10:38;;;;;;;93.20;2.43;;;20.10;39.40;;;;;;4994429;28;20433;-72
2023/06/25 04:13:04;;;;;;;94.00;2.50;;;20.00;38.90;;;;;;4994042;28;20171;-72
2023/06/25 04:15:29;;;;;;;93.50;2.43;;;20.30;39.40;;;;;;4985959;28;21124;-72
2023/06/25 04:17:55;;;;;;;93.07;2.40;;;20.10;38.90;;;;;;4982257;28;20220;-72
2023/06/25 04:20:20;;;;;;;94.00;2.77;;;20.10;38.70;;;;;;4986792;28;20246;-72
2023/06/25 04:22:46;;;;;;;93.17;2.17;;;20.10;39.10;;;;;;4994068;28;20667;-73
2023/06/25 04:25:11;;;;;;;94.03;3.00;;;20.70;39.40;;;;;;4993993;28;20239;-73
2023/06/25 04:27:38;;;;;;;94.67;3.13;;;20.10;37.90;;;;;;4985362;28;20202;-72
2023/06/25 04:30:04;;;;;;;94.07;2.97;;;20.30;38.70;;;;;;4984302;28;20196;-72
2023/06/25 04:32:29;;;;;;;93.63;2.60;;;20.20;37.90;;;;;;4993755;28;20423;-73
2023/06/25 04:34:55;;;;;;;93.07;2.27;;;20.30;38.30;;;;;;4994161;28;20465;-72
2023/06/25 04:37:20;;;;;;;95.10;2.93;;;20.30;38.20;;;;;;4986307;28;20678;-72
2023/06/25 04:39:46;;;;;;;94.07;3.00;;;20.20;37.60;;;;;;4983102;28;20221;-73
2023/06/25 04:42:11;;;;;;;93.90;2.60;;;20.20;38.50;;;;;;4994812;28;20191;-72
2023/06/25 04:44:37;;;;;;;93.10;2.33;;;20.60;38.90;;;;;;5000625;28;20196;-72
2023/06/25 04:47:03;;;;;;;93.00;2.40;;;19.80;37.70;;;;;;4990597;28;20224;-72
2023/06/25 04:49:28;;;;;;;93.30;2.50;;;18.90;40.60;;;;;;4986951;28;20197;-72
2023/06/25 04:51:54;;;;;;;94.97;3.30;;;19.40;40.60;;;;;;4980848;28;20231;-72
2023/06/25 04:54:19;;;;;;;93.77;2.77;;;18.80;42.30;;;;;;4988624;28;20182;-72
2023/06/25 04:56:45;;;;;;;94.07;3.17;;;19.10;40.80;;;;;;4980667;28;20198;-72
2023/06/25 04:59:10;;;;;;;93.40;2.60;;;19.40;41.10;;;;;;4981824;28;20228;-73
2023/06/25 05:01:36;;;;;;;93.07;2.43;;;19.80;40.40;;;;;;4973591;28;20264;-72
2023/06/25 05:04:02;;;;;;;93.30;2.47;;;20.20;39.00;;;;;;4979598;28;20648;-72
2023/06/25 05:06:27;;;;;;;93.77;2.80;;;20.10;37.70;;;;;;4984940;28;20612;-72
2023/06/25 05:08:53;;;;;;;94.03;3.00;;;20.20;39.10;;;;;;4981036;28;20723;-72
2023/06/25 05:11:19;;;;;;;93.37;2.43;;;20.10;38.60;;;;;;4973755;28;20493;-72
2023/06/25 05:13:44;;;;;;;93.47;2.43;;;19.90;39.60;;;;;;4975113;28;20213;-76
2023/06/25 05:16:10;;;;;;;93.40;2.47;;;19.90;39.20;;;;;;4982661;28;20240;-72
2023/06/25 05:18:38;;;;;;;93.00;2.40;;;19.80;39.30;;;;;;4993289;28;20177;-72
2023/06/25 05:21:03;;;;;;;93.37;2.70;;;19.80;39.10;;;;;;4993204;28;20483;-72
2023/06/25 05:23:56;;;;;;;94.00;2.73;;;19.70;38.70;;;;;;4987804;28;20530;-73
2023/06/25 05:26:22;;;;;;;93.37;2.80;;;19.80;40.60;;;;;;4983782;28;20201;-72
2023/06/25 05:28:47;;;;;;;93.20;2.70;;;19.70;40.30;;;;;;4973602;28;20414;-73
2023/06/25 05:31:13;;;;;;;93.60;2.90;;;19.80;40.30;;;;;;4973678;28;20206;-73
2023/06/25 05:33:38;;;;;;;92.80;2.50;;;19.90;39.50;;;;;;4970838;28;20187;-73
2023/06/25 05:36:04;;;;;;;95.17;2.90;;;20.40;37.40;;;;;;4985508;28;20198;-73
2023/06/25 05:38:30;;;;;;;92.60;2.27;;;20.30;37.30;;;;;;4986966;28;20186;-73
2023/06/25 05:40:55;;;;;;;92.80;2.40;;;19.90;38.80;;;;;;4992967;28;20200;-73
2023/06/25 05:43:21;;;;;;;92.70;2.60;;;20.00;39.10;;;;;;4992558;28;20644;-73
2023/06/25 05:45:46;;;;;;;93.00;2.70;;;19.90;39.30;;;;;;4977318;28;20209;-73
2023/06/25 05:48:12;;;;;;;93.30;2.50;;;19.70;40.40;;;;;;4984253;28;20230;-73
2023/06/25 05:50:38;;;;;;;94.50;2.83;;;20.60;37.70;;;;;;4992504;28;20202;-73
2023/06/25 05:53:04;;;;;;;93.77;2.90;;;20.70;37.10;;;;;;4992458;28;20185;-73
2023/06/25 05:55:29;;;;;;;92.57;2.30;;;21.10;36.00;;;;;;4988116;28;20408;-73
2023/06/25 05:57:55;;;;;;;92.90;2.60;;;21.00;36.30;;;;;;4983243;28;20435;-73
2023/06/25 06:00:21;;;;;;;93.83;2.70;;;21.50;36.20;;;;;;4978056;28;20652;-73
2023/06/25 06:02:46;;;;;;;93.60;3.20;;;22.10;33.00;;;;;;4973423;28;20219;-73
2023/06/25 06:05:12;;;;;;;94.03;3.00;;;22.50;31.50;;;;;;5000020;23;20525;-77
2023/06/25 06:07:38;;;;;;;93.47;2.87;;;22.50;33.30;;;;;;4968518;28;20212;-77
2023/06/25 06:10:03;;;;;;;93.37;2.90;;;21.90;32.80;;;;;;4974072;28;20182;-77
2023/06/25 06:12:29;;;;;;;92.70;2.73;;;21.30;34.70;;;;;;4976658;28;20274;-78
2023/06/25 06:14:55;;;;;;;96.20;3.10;;;21.20;35.50;;;;;;4974612;28;20198;-78
2023/06/25 06:17:21;;;;;;;92.97;2.30;;;21.50;34.70;;;;;;4966098;28;20184;-78
2023/06/25 06:19:46;;;;;;;93.50;2.70;;;21.50;35.00;;;;;;4964314;28;20181;-77
2023/06/25 06:22:13;;;;;;;92.77;2.80;;;21.40;35.30;;;;;;4961424;28;20941;-78
2023/06/25 06:24:39;;;;;;;92.57;2.50;;;21.40;35.20;;;;;;4968960;28;20271;-77
2023/06/25 06:27:05;;;;;;;92.53;2.37;;;21.40;35.60;;;;;;4970609;28;20540;-78
2023/06/25 06:29:31;;;;;;;94.63;3.03;;;21.90;34.70;;;;;;4962581;28;20955;-78
2023/06/25 06:31:56;;;;;;;93.07;3.03;;;22.10;33.70;;;;;;4952640;28;20527;-77
2023/06/25 06:34:22;;;;;;;93.77;3.33;;;22.10;34.80;;;;;;4967335;28;20280;-77
2023/06/25 06:36:47;;;;;;;92.47;2.60;;;22.50;34.00;;;;;;4969433;28;20184;-77
2023/06/25 06:39:15;;;;;;;92.50;2.60;;;22.30;32.70;;;;;;4963491;28;20186;-77
2023/06/25 06:41:41;;;;;;;92.30;2.83;;;22.70;33.60;;;;;;4967397;28;20179;-78
2023/06/25 06:44:14;;;;;;;92.63;2.63;;;23.10;30.90;;;;;;4976198;28;20827;-77
2023/06/25 06:46:40;;;;;;;92.27;2.60;;;23.00;31.80;;;;;;4975500;28;20210;-77
2023/06/25 06:49:06;;;;;;;92.73;3.10;;;23.20;32.50;;;;;;4968761;28;20524;-77
2023/06/25 06:51:32;;;;;;;92.70;3.07;;;23.10;31.40;;;;;;4966189;28;21002;-77
2023/06/25 06:53:57;;;;;;;92.30;2.50;;;22.40;33.20;;;;;;4972980;28;20426;-77
2023/06/25 06:56:23;;;;;;;92.40;2.80;;;22.70;33.80;;;;;;4968789;28;20186;-76
2023/06/25 06:58:49;;;;;;;92.63;2.50;;;23.30;33.00;;;;;;4964708;28;20191;-80
2023/06/25 07:01:14;;;;;;;93.20;2.73;;;23.60;31.60;;;;;;4967915;28;20194;-78
2023/06/25 07:03:40;;;;;;;93.30;2.60;;;23.90;30.20;;;;;;4968260;28;20209;-79
2023/06/25 07:06:05;;;;;;;92.10;2.77;;;24.20;29.90;;;;;;4975853;28;20218;-78
2023/06/25 07:08:31;;;;;;;92.50;3.00;;;23.90;29.10;;;;;;4971648;28;20196;-79
2023/06/25 07:10:56;;;;;;;91.97;2.73;;;23.10;30.00;;;;;;4967351;28;20654;-79
2023/06/25 07:13:22;;;;;;;92.60;3.00;;;23.10;29.90;;;;;;4966840;28;20184;-78
2023/06/25 07:15:47;;;;;;;92.30;2.93;;;23.10;30.90;;;;;;4974569;28;20196;-77
2023/06/25 07:18:13;;;;;;;93.87;2.97;;;23.30;30.50;;;;;;4979168;28;20175;-79
2023/06/25 07:20:39;;;;;;;92.07;2.90;;;23.10;31.00;;;;;;4978237;28;20657;-79
2023/06/25 07:23:04;;;;;;;91.67;2.63;;;23.20;30.70;;;;;;4969353;28;20183;-79
2023/06/25 07:25:30;;;;;;;94.80;2.60;;;23.10;31.40;;;;;;4970168;28;20204;-79
2023/06/25 07:27:55;;;;;;;91.40;2.37;;;23.80;30.90;;;;;;4976424;28;20232;-79
2023/06/25 07:30:21;;;;;;;93.00;2.60;;;24.20;30.00;;;;;;4981181;28;20183;-78
2023/06/25 07:32:46;;;;;;;93.20;3.30;;;24.00;29.80;;;;;;4977082;28;20178;-78
2023/06/25 07:35:12;;;;;;;91.77;2.73;;;23.70;30.60;;;;;;4965525;28;20200;-77
2023/06/25 07:37:40;;;;;;;91.10;2.37;;;24.10;30.20;;;;;;4960726;29;20181;-77
2023/06/25 07:40:07;;;;;;;92.50;3.13;;;24.00;30.80;;;;;;4969395;28;20175;-77
2023/06/25 07:42:32;;;;;;;91.40;2.70;;;23.80;30.10;;;;;;4979111;28;20449;-78
2023/06/25 07:44:58;;;;;;;91.33;2.73;;;24.10;29.20;;;;;;4971688;28;20526;-84
2023/06/25 07:47:24;;;;;;;90.90;2.60;;;24.30;29.60;;;;;;4977165;28;20202;-78
2023/06/25 07:49:49;;;;;;;91.80;3.30;;;24.00;29.30;;;;;;4982752;28;20174;-79
2023/06/25 07:52:15;;;;;;;91.00;2.83;;;23.90;29.80;;;;;;4984905;28;20417;-81
2023/06/25 07:54:41;;;;;;;90.97;2.70;;;24.80;29.40;;;;;;4975465;28;20205;-81
2023/06/25 07:57:06;;;;;;;91.17;2.77;;;25.50;28.10;;;;;;4974149;28;20200;-80
2023/06/25 07:59:32;;;;;;;90.87;2.70;;;25.50;26.60;;;;;;4982118;28;20174;-80
2023/06/25 08:01:58;;;;;;;90.47;2.67;;;25.10;27.10;;;;;;4973658;28;20191;-80
2023/06/25 08:04:23;;;;;;;91.10;2.67;;;25.20;27.80;;;;;;4963870;28;20217;-79
2023/06/25 08:06:49;;;;;;;90.50;2.80;;;25.20;27.70;;;;;;4967398;28;20233;-81
2023/06/25 08:09:15;;;;;;;90.20;2.73;;;25.10;28.30;;;;;;4973067;28;20178;-79
2023/06/25 08:11:40;;;;;;;89.87;2.50;;;24.70;27.90;;;;;;4979654;28;20171;-79
2023/06/25 08:14:08;;;;;;;89.30;2.00;;;24.50;28.30;;;;;;4968272;28;20210;-78
2023/06/25 08:16:34;;;;;;;90.57;2.83;;;25.30;28.40;;;;;;4969953;28;20178;-78
2023/06/25 08:19:00;;;;;;;90.17;2.90;;;25.90;26.70;;;;;;4977031;28;20433;-77
2023/06/25 08:21:26;;;;;;;90.73;3.20;;;25.60;26.70;;;;;;4978699;28;20183;-78
2023/06/25 08:23:52;;;;;;;89.97;2.60;;;25.20;27.20;;;;;;4966788;28;20456;-79
2023/06/25 08:26:18;;;;;;;89.20;2.47;;;25.70;28.80;;;;;;4971381;28;21031;-78
2023/06/25 08:28:43;;;;;;;89.07;2.37;;;26.30;25.40;;;;;;4966941;28;20431;-78
2023/06/25 08:31:10;;;;;;;89.77;2.70;;;26.50;25.10;;;;;;4968955;28;20186;-80
2023/06/25 08:33:37;;;;;;;89.30;2.57;;;26.80;25.00;;;;;;4975908;28;20272;-79
2023/06/25 08:36:02;;;;;;;88.87;2.13;;;26.80;24.10;;;;;;4982411;28;20788;-79
2023/06/25 08:38:30;;;;;;;90.30;2.90;;;26.70;24.50;;;;;;4981331;28;20450;-81
2023/06/25 08:40:56;;;;;;;88.83;2.53;;;27.00;22.30;;;;;;4975128;28;20198;-83
2023/06/25 08:43:21;;;;;;;88.77;2.27;;;27.10;20.70;;;;;;4968146;28;20418;-82
2023/06/25 08:45:47;;;;;;;88.60;2.50;;;27.50;19.30;;;;;;4961821;28;20197;-82
2023/06/25 08:48:13;;;;;;;88.47;2.53;;;27.60;19.60;;;;;;4963683;28;20198;-81
2023/06/25 08:50:42;;;;;;;88.33;2.33;;;27.60;19.30;;;;;;4964553;28;20179;-80
2023/06/25 08:53:08;;;;;;;88.67;3.00;;;27.90;18.30;;;;;;4971391;28;20498;-80
2023/06/25 08:55:37;;;;;;;88.67;2.70;;;28.00;18.90;;;;;;4980366;28;20457;-82
2023/06/25 08:58:02;;;;;;;88.87;3.00;;;28.20;17.60;;;;;;4977857;28;20782;-79
2023/06/25 09:00:28;;;;;;;87.80;2.50;;;28.40;18.60;;;;;;4979697;28;20473;-79
2023/06/25 09:02:54;;;;;;;87.20;2.27;;;28.30;17.60;;;;;;4968992;28;20254;-79
2023/06/25 09:05:27;;;;;;;87.30;2.23;;;28.50;16.70;;;;;;4940467;29;20215;-79
2023/06/25 09:07:53;;;;;;;88.00;2.60;;;28.30;17.60;;;;;;4940842;29;20459;-78
2023/06/25 09:10:20;;;;;;;87.17;2.43;;;28.50;17.50;;;;;;4940780;29;20419;-79
2023/06/25 09:12:48;;;;;;;87.70;2.63;;;28.40;17.10;;;;;;4946980;28;20449;-83
2023/06/25 09:15:21;;;;;;;86.80;2.10;;;28.60;17.00;;;;;;4971592;28;20438;-79
2023/06/25 09:17:47;;;;;;;87.43;2.40;;;28.90;17.00;;;;;;4968396;28;20434;-77
2023/06/25 09:20:13;;;;;;;87.70;2.83;;;28.60;16.40;;;;;;4966692;28;20419;-78
2023/06/25 09:22:52;;;;;;;87.20;2.60;;;28.50;16.10;;;;;;4975194;28;20201;-77
2023/06/25 09:25:26;;;;;;;87.07;2.63;;;28.90;15.90;;;;;;4971954;28;20434;-80
2023/06/25 09:27:52;;;;;;;87.30;2.70;;;29.10;16.10;;;;;;4965778;28;20535;-80
2023/06/25 09:30:21;;;;;;;86.60;2.60;;;29.20;14.90;;;;;;4978480;28;20418;-81
2023/06/25 09:32:50;;;;;;;86.30;2.40;;;29.40;16.00;;;;;;4973030;28;20281;-81
2023/06/25 09:35:22;;;;;;;86.60;2.60;;;29.50;16.40;;;;;;4955320;28;20557;-80
2023/06/25 09:37:52;;;;;;;86.40;2.50;;;29.60;15.50;;;;;;4966537;28;20501;-81
2023/06/25 09:40:21;;;;;;;85.90;2.37;;;29.60;15.50;;;;;;4965746;28;20430;-80
2023/06/25 09:42:48;;;;;;;86.60;2.73;;;29.30;16.80;;;;;;4958411;28;20481;-82
2023/06/25 09:45:15;;;;;;;86.77;2.80;;;29.20;15.40;;;;;;4969725;28;20847;-83
2023/06/25 09:47:42;;;;;;;86.40;2.53;;;29.50;15.30;;;;;;4975044;28;20471;-83
2023/06/25 09:50:28;;;;;;;86.57;2.47;;;29.80;14.40;;;;;;4960145;28;20449;-81
2023/06/25 09:52:56;;;;;;;85.20;2.30;;;30.00;14.80;;;;;;4971670;28;20402;-80
2023/06/25 09:55:22;;;;;;;85.90;2.70;;;29.70;14.10;;;;;;4960405;28;20557;-79
2023/06/25 09:57:49;;;;;;;84.97;2.10;;;29.90;14.40;;;;;;4957909;28;20782;-79
2023/06/25 10:00:16;;;;;;;84.93;2.23;;;29.60;15.40;;;;;;4959647;28;20925;-79
2023/06/25 10:02:42;;;;;;;84.67;2.13;;;30.00;14.00;;;;;;4960182;28;20841;-80
2023/06/25 10:05:08;;;;;;;84.70;2.20;;;30.10;15.10;;;;;;4959820;28;20464;-80
2023/06/25 10:07:34;;;;;;;84.63;2.13;;;30.00;15.80;;;;;;4953109;29;20239;-80
2023/06/25 10:10:00;;;;;;;84.77;2.30;;;30.40;14.40;;;;;;4940181;29;20179;-80
2023/06/25 10:12:26;;;;;;;85.17;2.50;;;30.40;14.00;;;;;;4957211;29;20423;-80
2023/06/25 10:14:54;;;;;;;84.20;2.17;;;30.50;13.90;;;;;;4965304;28;20203;-80
2023/06/25 10:17:20;;;;;;;83.90;2.13;;;30.60;13.00;;;;;;4976468;28;20186;-80
2023/06/25 10:19:55;;;;;;;84.20;2.10;;;29.90;13.40;;;;;;4965167;28;20945;-80
2023/06/25 10:22:23;;;;;;;84.60;2.40;;;29.80;14.80;;;;;;4967428;28;20567;-80
2023/06/25 10:24:50;;;;;;;84.53;2.40;;;30.20;13.30;;;;;;4961024;28;20454;-80
2023/06/25 10:27:34;;;;;;;84.40;2.47;;;30.40;15.30;;;;;;4965752;28;20508;-80
2023/06/25 10:30:10;;;;;;;84.33;2.37;;;30.80;13.90;;;;;;4948905;28;20437;-80
2023/06/25 10:32:41;;;;;;;84.17;2.30;;;31.00;13.50;;;;;;4962121;28;20434;-80
2023/06/25 10:35:07;;;;;;;84.17;2.10;;;31.20;14.80;;;;;;4954807;28;20446;-80
2023/06/25 10:37:35;;;;;;;86.70;2.70;;;31.30;12.20;;;;;;4968931;28;20784;-80
2023/06/25 10:40:01;;;;;;;84.00;2.30;;;31.20;12.50;;;;;;4961698;28;20553;-80
2023/06/25 10:42:29;;;;;;;84.50;2.60;;;30.80;13.70;;;;;;4960171;28;20444;-80
2023/06/25 10:44:55;;;;;;;84.03;2.30;;;31.10;12.90;;;;;;4957193;28;20823;-80
2023/06/25 10:47:21;;;;;;;83.97;2.37;;;31.50;13.30;;;;;;4957611;28;20477;-80
2023/06/25 10:49:46;;;;;;;84.07;2.50;;;31.70;12.20;;;;;;4969174;28;20253;-80
2023/06/25 10:52:12;;;;;;;83.50;1.97;;;31.50;13.10;;;;;;4969554;28;20196;-80
2023/06/25 10:54:37;;;;;;;84.57;2.50;;;31.80;12.40;;;;;;4968533;28;20236;-80
2023/06/25 10:57:11;;;;;;;83.57;2.20;;;32.00;12.10;;;;;;4977658;28;20191;-80
2023/06/25 10:59:38;;;;;;;84.17;2.50;;;32.20;12.80;;;;;;4981992;28;20210;-80
2023/06/25 11:02:21;;;;;;;83.40;2.17;;;32.40;11.40;;;;;;4963619;28;20433;-80
2023/06/25 11:04:55;;;;;;;82.97;2.00;;;32.40;12.60;;;;;;4963113;29;20457;-80
2023/06/25 11:07:23;;;;;;;83.10;2.10;;;31.90;12.50;;;;;;4963664;28;20462;-80
2023/06/25 11:09:58;;;;;;;82.97;2.17;;;31.90;11.30;;;;;;4962891;29;20970;-80
2023/06/25 11:12:24;;;;;;;82.67;2.03;;;31.80;11.30;;;;;;4963954;28;20446;-80
2023/06/25 11:14:50;;;;;;;82.87;2.03;;;32.00;11.40;;;;;;4961898;28;20442;-80
2023/06/25 11:17:16;;;;;;;84.00;2.37;;;32.30;11.90;;;;;;4963468;29;20418;-80
2023/06/25 11:19:42;;;;;;;82.67;2.03;;;32.50;10.50;;;;;;4962382;28;20183;-80
2023/06/25 11:22:08;;;;;;;82.93;2.40;;;32.50;12.80;;;;;;4962556;29;20437;-80
2023/06/25 11:24:35;;;;;;;82.47;2.23;;;32.80;10.70;;;;;;4965784;28;20206;-80
2023/06/25 11:27:01;;;;;;;82.07;2.00;;;32.90;9.50;;;;;;4964620;28;20466;-80
2023/06/25 11:29:36;;;;;;;82.67;2.30;;;32.80;10.20;;;;;;4967460;28;20448;-80
2023/06/25 11:32:05;;;;;;;82.00;2.10;;;32.90;9.80;;;;;;4961410;28;20187;-80
2023/06/25 11:34:31;;;;;;;82.30;2.50;;;32.90;9.20;;;;;;4957679;28;20557;-80
2023/06/25 11:37:07;;;;;;;82.07;2.20;;;33.60;11.00;;;;;;4967871;28;20426;-80
2023/06/25 11:39:42;;;;;;;82.37;2.23;;;34.70;8.10;;;;;;4968777;28;20933;-80
2023/06/25 11:42:15;;;;;;;82.00;2.10;;;35.60;7.50;;;;;;4963815;28;20499;-80
2023/06/25 11:51:25;;;;;;;80.20;1.80;;;37.80;5.90;;;;;;4960401;28;20577;-81
2023/06/25 11:53:50;;;;;;;79.50;1.73;;;37.00;5.50;;;;;;4960511;28;20458;-81
2023/06/25 11:56:16;;;;;;;79.57;1.80;;;37.80;4.20;;;;;;4965597;28;20870;-81
2023/06/25 11:58:41;;;;;;;79.60;1.90;;;38.50;4.20;;;;;;4963784;28;20199;-81
2023/06/25 12:01:10;;;;;;;79.23;1.90;;;39.30;4.10;;;;;;4963912;28;20675;-81
2023/06/25 12:03:36;;;;;;;78.97;1.80;;;39.40;2.90;;;;;;4963125;28;20190;-81
2023/06/25 12:06:01;;;;;;;78.30;1.60;;;39.10;3.20;;;;;;4980042;23;20505;-75
2023/06/25 12:08:27;;;;;;;78.00;1.83;;;39.50;4.30;;;;;;4951246;29;20189;-75
2023/06/25 12:10:53;;;;;;;77.97;1.80;;;39.40;2.10;;;;;;4953164;29;20226;-76
2023/06/25 12:13:18;;;;;;;77.30;2.00;;;39.20;2.50;;;;;;4951748;29;20578;-77
2023/06/25 12:15:44;;;;;;;77.07;1.90;;;39.60;2.40;;;;;;4951425;28;20198;-75
2023/06/25 12:18:09;;;;;;;76.83;1.90;;;40.00;1.50;;;;;;4952859;29;20201;-76
2023/06/25 12:20:35;;;;;;;76.40;1.77;;;39.50;2.30;;;;;;4952439;29;20650;-77
2023/06/25 12:23:00;;;;;;;76.30;1.67;;;40.00;3.60;;;;;;4954570;29;20194;-75
2023/06/25 12:25:26;;;;;;;76.00;1.60;;;40.70;2.50;;;;;;4952002;28;20465;-75
2023/06/25 12:27:54;;;;;;;76.00;1.70;;;40.70;2.50;;;;;;4953207;29;20302;-76
2023/06/25 12:30:20;;;;;;;75.97;1.77;;;40.40;1.50;;;;;;4953835;29;20213;-75
2023/06/25 12:32:45;;;;;;;75.80;1.90;;;40.20;2.20;;;;;;4952645;29;20852;-75
2023/06/25 12:35:11;;;;;;;75.67;1.97;;;38.90;3.20;;;;;;4936321;29;20285;-74
2023/06/25 12:37:36;;;;;;;75.37;1.70;;;37.40;3.70;;;;;;4953639;29;20183;-75
2023/06/25 12:40:03;;;;;;;75.57;1.83;;;36.70;5.60;;;;;;4952980;29;20222;-75
2023/06/25 12:42:29;;;;;;;75.37;1.67;;;38.10;4.50;;;;;;4952776;29;20592;-76